CYOD

CFB Cold Lake Airport

Cold Lake, Alberta, Canada
METAR CYOD 161800Z 05003KT 15SM FEW010 OVC100 M18/M23 A3020 RMK SC1AC8 SC TR SLP286
Observed Flight Rules
Jan-16 @ 18:00 UTC (24 minutes ago) Visual Flight Rules
Wind Visibility Clouds
50° at 3 knots 15 miles
  • Few at 1,000' AGL
  • Overcast at 10,000' AGL
Temperatures Readings
Current -18°C / -0°F
Dewpoint -23°C / -9°F
Humidity 65%
Altimeter 30.2" Hg
Pressure 1028.6 hPa
Elevation 544
METAR CYOD 161800Z 05003KT 15SM FEW010 OVC100 M18/M23 A3020 RMK SC1AC8 SC TR SLP286
Observed Flight Rules
Jan-16 @ 18:00 UTC
(24 minutes ago)
VFR
Wind Visibility
50° at 3 knots 15 miles
Clouds
  • Few at 1,000' AGL
  • Overcast at 10,000' AGL
Temperature Dewpoint
-18°C / -0°F -23°C / -9°F
Humidity Altimeter Pressure
65% 30.2" Hg 1028.6 hPa